createdAt,value
2022-11-06T00:01:17.417Z,20.73
2022-11-06T00:03:45.885Z,20.77
2022-11-06T00:06:37.049Z,20.80
2022-11-06T00:09:09.616Z,20.86
2022-11-06T00:11:38.134Z,20.89
2022-11-06T00:14:06.741Z,20.94
2022-11-06T00:16:35.271Z,20.98
2022-11-06T00:19:04.353Z,21.01
2022-11-06T00:21:32.938Z,21.07
2022-11-06T00:24:04.049Z,21.12
2022-11-06T00:26:33.919Z,21.15
2022-11-06T00:29:03.136Z,21.19
2022-11-06T00:31:36.681Z,21.21
2022-11-06T00:34:07.749Z,21.25
2022-11-06T00:36:36.995Z,21.28
2022-11-06T00:39:05.890Z,21.34
2022-11-06T00:41:34.239Z,21.39
2022-11-06T00:44:03.825Z,21.45
2022-11-06T00:46:32.720Z,21.49
2022-11-06T00:49:01.100Z,21.56
2022-11-06T00:51:42.311Z,21.60
2022-11-06T00:54:13.126Z,21.67
2022-11-06T00:56:41.991Z,21.72
2022-11-06T00:59:14.276Z,21.78
2022-11-06T01:01:45.915Z,21.83
2022-11-06T01:04:22.261Z,21.89
2022-11-06T01:06:54.005Z,21.95
2022-11-06T01:09:25.314Z,22.03
2022-11-06T01:12:12.942Z,22.10
2022-11-06T01:14:43.117Z,22.16
2022-11-06T01:17:12.079Z,22.23
2022-11-06T01:19:40.924Z,22.29
2022-11-06T01:22:09.586Z,22.37
2022-11-06T01:24:38.030Z,22.43
2022-11-06T01:29:54.954Z,22.56
2022-11-06T01:32:23.336Z,22.63
2022-11-06T01:34:52.805Z,22.70
2022-11-06T01:37:21.267Z,22.75
2022-11-06T01:39:51.591Z,22.81
2022-11-06T01:42:22.365Z,22.87
2022-11-06T01:45:34.717Z,22.94
2022-11-06T01:48:04.362Z,22.98
2022-11-06T01:50:33.464Z,23.07
2022-11-06T01:53:03.445Z,23.12
2022-11-06T01:55:37.648Z,23.17
2022-11-06T01:58:08.540Z,23.23
2022-11-06T02:00:37.033Z,23.29
2022-11-06T02:03:05.871Z,23.36
2022-11-06T02:05:34.433Z,23.40
2022-11-06T02:08:03.113Z,23.47
2022-11-06T02:10:32.080Z,23.53
2022-11-06T02:13:09.656Z,23.60
2022-11-06T02:15:54.741Z,23.67
2022-11-06T02:18:33.404Z,23.77
2022-11-06T02:21:26.049Z,23.86
2022-11-06T02:24:30.826Z,23.91
2022-11-06T02:27:19.944Z,23.97
2022-11-06T02:30:17.269Z,24.05
2022-11-06T02:32:57.981Z,24.16
2022-11-06T02:35:37.773Z,24.21
2022-11-06T02:38:10.053Z,24.30
2022-11-06T02:40:48.746Z,24.39
2022-11-06T02:43:18.749Z,24.44
2022-11-06T02:45:58.609Z,24.52
2022-11-06T02:48:35.360Z,24.57
2022-11-06T02:51:07.102Z,24.67
2022-11-06T02:53:40.683Z,24.72
2022-11-06T02:56:26.768Z,24.78
2022-11-06T02:59:03.577Z,24.86
2022-11-06T03:01:38.296Z,24.93
2022-11-06T03:04:15.939Z,24.99
2022-11-06T03:06:49.260Z,25.06
2022-11-06T03:09:22.148Z,25.13
2022-11-06T03:12:00.211Z,25.18
2022-11-06T03:14:53.321Z,25.24
2022-11-06T03:17:48.541Z,25.31
2022-11-06T03:20:19.823Z,25.37
2022-11-06T03:23:00.241Z,25.43
2022-11-06T03:25:36.952Z,25.47
2022-11-06T03:28:34.141Z,25.56
2022-11-06T03:31:09.282Z,25.64
2022-11-06T03:33:44.532Z,25.71
2022-11-06T03:36:35.636Z,25.81
2022-11-06T03:39:12.394Z,25.87
2022-11-06T03:41:50.893Z,25.95
2022-11-06T03:44:23.823Z,26.00
2022-11-06T03:46:58.929Z,26.10
2022-11-06T03:49:36.704Z,26.15
2022-11-06T03:52:12.653Z,26.22
2022-11-06T03:54:48.844Z,26.28
2022-11-06T03:57:27.344Z,26.33
2022-11-06T04:00:02.713Z,26.41
2022-11-06T04:02:34.991Z,26.46
2022-11-06T04:05:26.857Z,26.53
2022-11-06T04:08:16.529Z,26.61
2022-11-06T04:11:07.752Z,26.69
2022-11-06T04:13:56.844Z,26.73
2022-11-06T04:16:34.586Z,26.82
2022-11-06T04:19:03.523Z,26.86
2022-11-06T04:21:43.097Z,26.91
2022-11-06T04:24:45.591Z,26.97
2022-11-06T04:27:32.053Z,27.04
2022-11-06T04:30:15.887Z,27.12
2022-11-06T04:33:02.181Z,27.18
2022-11-06T04:35:39.032Z,27.28
2022-11-06T04:38:19.556Z,27.37
2022-11-06T04:41:05.899Z,27.43
2022-11-06T04:43:42.634Z,27.46
2022-11-06T04:46:14.704Z,27.51
2022-11-06T04:48:44.796Z,27.56
2022-11-06T04:51:15.630Z,27.62
2022-11-06T04:53:45.345Z,27.66
2022-11-06T04:56:35.007Z,27.72
2022-11-06T04:59:05.643Z,27.76
2022-11-06T05:01:34.509Z,27.80
2022-11-06T05:04:02.950Z,27.85
2022-11-06T05:06:31.314Z,27.91
2022-11-06T05:09:00.097Z,27.94
2022-11-06T05:11:28.671Z,27.98
2022-11-06T05:13:57.083Z,28.00
2022-11-06T05:16:25.406Z,28.05
2022-11-06T05:18:53.813Z,28.08
2022-11-06T05:21:40.412Z,28.12
2022-11-06T05:24:09.074Z,28.18
2022-11-06T05:26:37.436Z,28.21
2022-11-06T05:29:05.848Z,28.23
2022-11-06T05:31:34.520Z,28.26
2022-11-06T05:34:02.916Z,28.26
2022-11-06T05:36:31.281Z,28.30
2022-11-06T05:38:59.644Z,28.32
2022-11-06T05:41:28.267Z,28.35
2022-11-06T05:43:56.842Z,28.39
2022-11-06T05:46:46.949Z,28.41
2022-11-06T05:49:13.853Z,28.44
2022-11-06T05:51:42.284Z,28.46
2022-11-06T05:54:10.679Z,28.53
2022-11-06T05:56:39.169Z,28.56
2022-11-06T05:59:07.607Z,28.63
2022-11-06T06:01:36.112Z,28.66
2022-11-06T06:04:04.612Z,28.70
2022-11-06T06:06:33.075Z,28.71
2022-11-06T06:09:01.382Z,28.71
2022-11-06T06:11:29.744Z,28.71
2022-11-06T06:13:58.129Z,28.72
2022-11-06T06:16:26.506Z,28.75
2022-11-06T06:18:54.895Z,28.75
2022-11-06T06:21:23.272Z,28.76
2022-11-06T06:23:51.606Z,28.79
2022-11-06T06:26:20.086Z,28.77
2022-11-06T06:28:50.610Z,28.79
2022-11-06T06:31:19.085Z,28.83
2022-11-06T06:33:47.500Z,28.85
2022-11-06T06:36:15.851Z,28.86
2022-11-06T06:38:44.266Z,28.90
2022-11-06T06:41:12.693Z,28.91
2022-11-06T06:43:41.038Z,28.96
2022-11-06T06:46:09.516Z,28.97
2022-11-06T06:48:38.105Z,29.00
2022-11-06T06:51:08.746Z,29.03
2022-11-06T06:53:37.643Z,29.05
2022-11-06T06:56:06.744Z,29.07
2022-11-06T06:58:35.437Z,29.07
2022-11-06T07:01:05.761Z,29.08
2022-11-06T07:03:34.409Z,29.08
2022-11-06T07:06:02.778Z,29.09
2022-11-06T07:08:31.818Z,29.09
2022-11-06T07:11:10.655Z,29.10
2022-11-06T07:13:39.277Z,29.11
2022-11-06T07:16:10.097Z,29.11
2022-11-06T07:18:39.458Z,29.11
2022-11-06T07:21:09.796Z,29.11
2022-11-06T07:23:38.992Z,29.10
2022-11-06T07:26:08.084Z,29.12
2022-11-06T07:28:36.929Z,29.11
2022-11-06T07:31:08.894Z,29.12
2022-11-06T07:33:37.612Z,29.11
2022-11-06T07:36:14.303Z,29.12
2022-11-06T07:38:44.055Z,29.13
2022-11-06T07:41:15.689Z,29.15
2022-11-06T07:43:44.795Z,29.16
2022-11-06T07:46:14.652Z,29.17
2022-11-06T07:48:43.147Z,29.17
2022-11-06T07:51:12.901Z,29.17
2022-11-06T07:53:42.292Z,29.21
2022-11-06T07:56:10.797Z,29.22
2022-11-06T07:58:39.751Z,29.23
2022-11-06T08:01:17.846Z,29.26
2022-11-06T08:03:47.325Z,29.26
2022-11-06T08:06:15.756Z,29.26
2022-11-06T08:08:44.154Z,29.23
2022-11-06T08:11:13.551Z,29.23
2022-11-06T08:13:42.024Z,29.22
2022-11-06T08:16:13.006Z,29.20
2022-11-06T08:18:42.339Z,29.17
2022-11-06T08:21:10.685Z,29.16
2022-11-06T08:23:39.189Z,29.15
2022-11-06T08:26:08.475Z,29.11
2022-11-06T08:28:36.894Z,29.07
2022-11-06T08:31:09.747Z,29.04
2022-11-06T08:33:40.073Z,29.04
2022-11-06T08:36:10.682Z,29.04
2022-11-06T08:38:39.382Z,29.04
2022-11-06T08:41:12.947Z,29.04
2022-11-06T08:43:41.466Z,29.04
2022-11-06T08:46:11.554Z,29.04
2022-11-06T08:48:40.065Z,29.03
2022-11-06T08:51:08.839Z,29.02
2022-11-06T08:53:37.305Z,29.02
2022-11-06T08:56:06.369Z,29.01
2022-11-06T08:58:34.852Z,29.01
2022-11-06T09:01:03.237Z,28.98
2022-11-06T09:03:31.729Z,28.97
2022-11-06T09:06:00.145Z,28.96
2022-11-06T09:08:28.526Z,28.93
2022-11-06T09:10:58.807Z,28.91
2022-11-06T09:13:27.565Z,28.89
2022-11-06T09:15:55.917Z,28.84
2022-11-06T09:18:24.273Z,28.83
2022-11-06T09:20:58.664Z,28.82
2022-11-06T09:23:27.278Z,28.80
2022-11-06T09:25:55.640Z,28.76
2022-11-06T09:28:23.958Z,28.75
2022-11-06T09:30:52.409Z,28.74
2022-11-06T09:33:21.015Z,28.69
2022-11-06T09:35:49.666Z,28.67
2022-11-06T09:38:18.062Z,28.62
2022-11-06T09:40:49.314Z,28.58
2022-11-06T09:44:03.098Z,28.53
2022-11-06T09:46:40.331Z,28.44
2022-11-06T09:49:14.724Z,28.37
2022-11-06T09:52:08.887Z,28.28
2022-11-06T09:54:50.737Z,28.18
2022-11-06T09:57:41.151Z,28.08
2022-11-06T10:00:13.985Z,27.98
2022-11-06T10:02:48.847Z,27.89
2022-11-06T10:05:27.683Z,27.79
2022-11-06T10:08:21.095Z,27.69
2022-11-06T10:11:03.663Z,27.59
2022-11-06T10:13:44.127Z,27.50
2022-11-06T10:16:37.234Z,27.40
2022-11-06T10:19:39.222Z,27.31
2022-11-06T10:22:07.578Z,27.20
2022-11-06T10:24:53.887Z,27.09
2022-11-06T10:28:00.336Z,26.98
2022-11-06T10:30:51.149Z,26.90
2022-11-06T10:33:40.700Z,26.78
2022-11-06T10:36:23.904Z,26.70
2022-11-06T10:38:53.890Z,26.60
2022-11-06T10:41:30.669Z,26.52
2022-11-06T10:44:01.933Z,26.44
2022-11-06T10:46:44.695Z,26.36
2022-11-06T10:49:37.410Z,26.28
2022-11-06T10:52:34.854Z,26.18
2022-11-06T10:55:27.762Z,26.11
2022-11-06T10:58:30.437Z,26.01
2022-11-06T11:01:02.513Z,25.94
2022-11-06T11:03:41.269Z,25.87
2022-11-06T11:06:10.329Z,25.79
2022-11-06T11:08:41.372Z,25.72
2022-11-06T11:11:15.988Z,25.66
2022-11-06T11:13:47.166Z,25.61
2022-11-06T11:16:33.628Z,25.54
2022-11-06T11:19:36.070Z,25.45
2022-11-06T11:22:20.656Z,25.37
2022-11-06T11:25:07.596Z,25.29
2022-11-06T11:27:45.923Z,25.20
2022-11-06T11:30:27.417Z,25.12
2022-11-06T11:32:56.327Z,25.04
2022-11-06T11:35:32.501Z,24.96
2022-11-06T11:38:15.013Z,24.90
2022-11-06T11:40:44.315Z,24.83
2022-11-06T11:43:33.492Z,24.79
2022-11-06T11:46:09.660Z,24.74
2022-11-06T11:48:53.784Z,24.68
2022-11-06T11:51:29.666Z,24.62
2022-11-06T11:54:15.473Z,24.56
2022-11-06T11:57:05.845Z,24.53
2022-11-06T11:59:48.924Z,24.46
2022-11-06T12:02:32.355Z,24.43
2022-11-06T12:05:10.366Z,24.40
2022-11-06T12:07:46.272Z,24.35
2022-11-06T12:10:35.816Z,24.31
2022-11-06T12:13:16.143Z,24.29
2022-11-06T12:16:14.539Z,24.24
2022-11-06T12:18:48.811Z,24.21
2022-11-06T12:21:32.655Z,24.17
2022-11-06T12:24:08.218Z,24.14
2022-11-06T12:26:47.926Z,24.11
2022-11-06T12:29:31.147Z,24.06
2022-11-06T12:32:33.206Z,24.01
2022-11-06T12:35:27.751Z,23.95
2022-11-06T12:38:14.274Z,23.91
2022-11-06T12:41:05.760Z,23.85
2022-11-06T12:43:49.079Z,23.83
2022-11-06T12:46:38.493Z,23.80
2022-11-06T12:49:24.801Z,23.78
2022-11-06T12:52:14.150Z,23.76
2022-11-06T12:55:07.138Z,23.74
2022-11-06T12:58:06.326Z,23.72
2022-11-06T13:00:37.655Z,23.69
2022-11-06T13:03:30.797Z,23.66
2022-11-06T13:06:24.162Z,23.64
2022-11-06T13:08:58.217Z,23.61
2022-11-06T13:11:45.023Z,23.57
2022-11-06T13:14:26.165Z,23.54
2022-11-06T13:17:16.133Z,23.52
2022-11-06T13:19:52.698Z,23.50
2022-11-06T13:22:25.207Z,23.48
2022-11-06T13:25:03.845Z,23.46
2022-11-06T13:27:46.032Z,23.44
2022-11-06T13:30:18.000Z,23.43
2022-11-06T13:33:16.119Z,23.41
2022-11-06T13:35:46.596Z,23.39
2022-11-06T13:38:21.800Z,23.37
2022-11-06T13:41:03.315Z,23.36
2022-11-06T13:43:49.385Z,23.31
2022-11-06T13:46:36.440Z,23.30
2022-11-06T13:49:19.651Z,23.27
2022-11-06T13:52:11.178Z,23.23
2022-11-06T13:54:58.032Z,23.21
2022-11-06T13:57:50.505Z,23.18
2022-11-06T14:00:21.570Z,23.16
2022-11-06T14:02:58.957Z,23.15
2022-11-06T14:11:40.584Z,23.12
2022-11-06T14:14:31.479Z,23.09
2022-11-06T14:17:18.186Z,23.06
2022-11-06T14:19:52.931Z,23.03
2022-11-06T14:22:31.464Z,23.01
2022-11-06T14:25:02.349Z,22.96
2022-11-06T14:27:30.896Z,22.93
2022-11-06T14:30:57.619Z,22.90
2022-11-06T14:33:41.448Z,22.87
2022-11-06T14:36:31.386Z,22.85
2022-11-06T14:38:59.792Z,22.86
2022-11-06T14:41:37.151Z,22.88
2022-11-06T14:44:24.618Z,22.90
2022-11-06T14:52:46.749Z,22.89
2022-11-06T14:55:41.027Z,22.89
2022-11-06T14:58:33.563Z,22.86
2022-11-06T15:01:17.236Z,22.86
2022-11-06T15:03:53.025Z,22.85
2022-11-06T15:06:29.737Z,22.83
2022-11-06T15:09:02.391Z,22.82
2022-11-06T15:11:33.710Z,22.79
2022-11-06T15:14:07.754Z,22.76
2022-11-06T15:17:01.954Z,22.71
2022-11-06T15:19:39.074Z,22.68
2022-11-06T15:22:20.265Z,22.64
2022-11-06T15:24:56.840Z,22.59
2022-11-06T15:27:43.352Z,22.56
2022-11-06T15:30:18.885Z,22.54
2022-11-06T15:32:49.287Z,22.49
2022-11-06T15:35:21.266Z,22.47
2022-11-06T15:38:04.656Z,22.43
2022-11-06T15:40:41.095Z,22.41
2022-11-06T15:43:32.204Z,22.37
2022-11-06T15:46:12.291Z,22.33
2022-11-06T15:48:40.745Z,22.29
2022-11-06T15:51:31.924Z,22.27
2022-11-06T15:54:00.406Z,22.23
2022-11-06T15:56:34.061Z,22.21
2022-11-06T15:59:15.594Z,22.17
2022-11-06T16:01:49.251Z,22.15
2022-11-06T16:04:22.031Z,22.13
2022-11-06T16:06:52.874Z,22.11
2022-11-06T16:09:27.511Z,22.08
2022-11-06T16:11:56.746Z,22.07
2022-11-06T16:14:25.514Z,22.05
2022-11-06T16:16:56.774Z,22.04
2022-11-06T16:19:34.544Z,22.02
2022-11-06T16:22:13.471Z,21.98
2022-11-06T16:24:47.155Z,21.97
2022-11-06T16:27:16.568Z,21.95
2022-11-06T16:29:52.895Z,21.94
2022-11-06T16:32:25.056Z,21.89
2022-11-06T16:34:56.216Z,21.89
2022-11-06T16:37:30.711Z,21.87
2022-11-06T16:40:03.081Z,21.84
2022-11-06T16:42:34.258Z,21.82
2022-11-06T16:45:24.591Z,21.80
2022-11-06T16:48:08.109Z,21.79
2022-11-06T16:51:13.139Z,21.79
2022-11-06T16:53:54.689Z,21.77
2022-11-06T16:56:32.905Z,21.78
2022-11-06T16:59:23.674Z,21.78
2022-11-06T17:01:52.484Z,21.77
2022-11-06T17:04:35.758Z,21.77
2022-11-06T17:07:04.112Z,21.76
2022-11-06T17:09:35.781Z,21.76
2022-11-06T17:12:05.689Z,21.76
2022-11-06T17:14:35.327Z,21.75
2022-11-06T17:17:04.435Z,21.73
2022-11-06T17:19:33.001Z,21.72
2022-11-06T17:22:01.816Z,21.71
2022-11-06T17:24:37.886Z,21.70
2022-11-06T17:27:07.435Z,21.67
2022-11-06T17:29:37.214Z,21.66
2022-11-06T17:32:06.093Z,21.65
2022-11-06T17:34:34.524Z,21.63
2022-11-06T17:37:02.916Z,21.63
2022-11-06T17:39:32.932Z,21.61
2022-11-06T17:42:01.252Z,21.58
2022-11-06T17:44:29.583Z,21.57
2022-11-06T17:46:58.004Z,21.54
2022-11-06T17:49:26.485Z,21.51
2022-11-06T17:51:59.129Z,21.49
2022-11-06T17:54:31.311Z,21.47
2022-11-06T17:57:01.311Z,21.45
2022-11-06T17:59:29.827Z,21.45
2022-11-06T18:01:58.728Z,21.45
2022-11-06T18:04:31.531Z,21.45
2022-11-06T18:06:59.972Z,21.46
2022-11-06T18:09:28.633Z,21.45
2022-11-06T18:11:57.514Z,21.45
2022-11-06T18:14:27.893Z,21.45
2022-11-06T18:16:56.205Z,21.45
2022-11-06T18:19:26.055Z,21.45
2022-11-06T18:21:55.858Z,21.44
2022-11-06T18:24:24.701Z,21.43
2022-11-06T18:26:53.444Z,21.42
2022-11-06T18:29:21.833Z,21.42
2022-11-06T18:31:50.166Z,21.41
2022-11-06T18:34:20.791Z,21.39
2022-11-06T18:36:51.202Z,21.39
2022-11-06T18:39:20.295Z,21.36
2022-11-06T18:41:48.906Z,21.35
2022-11-06T18:44:19.083Z,21.34
2022-11-06T18:46:48.547Z,21.34
2022-11-06T18:49:17.371Z,21.34
2022-11-06T18:51:45.852Z,21.32
2022-11-06T18:54:14.295Z,21.29
2022-11-06T18:56:42.903Z,21.27
2022-11-06T18:59:16.610Z,21.25
2022-11-06T19:01:45.061Z,21.23
2022-11-06T19:04:13.563Z,21.22
2022-11-06T19:06:42.198Z,21.19
2022-11-06T19:09:11.761Z,21.17
2022-11-06T19:11:40.473Z,21.15
2022-11-06T19:14:08.806Z,21.12
2022-11-06T19:16:37.590Z,21.11
2022-11-06T19:19:07.259Z,21.08
2022-11-06T19:21:36.067Z,21.07
2022-11-06T19:24:05.937Z,21.05
2022-11-06T19:26:36.245Z,21.02
2022-11-06T19:29:09.171Z,21.01
2022-11-06T19:31:38.820Z,20.99
2022-11-06T19:34:09.444Z,20.97
2022-11-06T19:36:37.910Z,20.99
2022-11-06T19:39:08.153Z,20.99
2022-11-06T19:41:36.730Z,20.99
2022-11-06T19:44:05.118Z,20.99
2022-11-06T19:46:36.118Z,20.98
2022-11-06T19:49:10.234Z,20.98
2022-11-06T19:51:38.831Z,20.96
2022-11-06T19:54:08.005Z,20.95
2022-11-06T19:56:36.792Z,20.94
2022-11-06T19:59:25.787Z,20.95
2022-11-06T20:01:54.224Z,20.95
2022-11-06T20:04:22.683Z,20.94
2022-11-06T20:06:51.026Z,20.93
2022-11-06T20:09:19.343Z,20.92
2022-11-06T20:11:47.660Z,20.91
2022-11-06T20:14:19.548Z,20.90
2022-11-06T20:16:47.820Z,20.89
2022-11-06T20:19:16.534Z,20.88
2022-11-06T20:21:44.946Z,20.88
2022-11-06T20:24:13.435Z,20.87
2022-11-06T20:26:43.111Z,20.86
2022-11-06T20:29:11.479Z,20.86
2022-11-06T20:31:40.003Z,20.85
2022-11-06T20:34:08.408Z,20.85
2022-11-06T20:36:36.843Z,20.83
2022-11-06T20:39:06.188Z,20.82
2022-11-06T20:41:34.739Z,20.80
2022-11-06T20:44:03.094Z,20.79
2022-11-06T20:46:31.748Z,20.76
2022-11-06T20:49:00.236Z,20.74
2022-11-06T20:51:30.347Z,20.72
2022-11-06T20:53:58.671Z,20.71
2022-11-06T20:56:27.702Z,20.68
2022-11-06T20:58:57.281Z,20.67
2022-11-06T21:01:31.073Z,20.66
2022-11-06T21:04:01.350Z,20.63
2022-11-06T21:06:31.272Z,20.60
2022-11-06T21:08:59.886Z,20.60
2022-11-06T21:11:29.137Z,20.58
2022-11-06T21:13:58.325Z,20.56
2022-11-06T21:16:32.756Z,20.54
2022-11-06T21:19:02.860Z,20.54
2022-11-06T21:21:35.014Z,20.53
2022-11-06T21:24:05.609Z,20.50
2022-11-06T21:26:38.192Z,20.48
2022-11-06T21:29:09.836Z,20.47
2022-11-06T21:31:45.670Z,20.46
2022-11-06T21:34:17.810Z,20.44
2022-11-06T21:36:46.728Z,20.43
2022-11-06T21:39:20.884Z,20.43
2022-11-06T21:41:49.622Z,20.42
2022-11-06T21:44:19.592Z,20.41
2022-11-06T21:46:48.724Z,20.40
2022-11-06T21:49:17.115Z,20.39
2022-11-06T21:51:45.443Z,20.39
2022-11-06T21:54:33.037Z,20.38
2022-11-06T21:57:01.462Z,20.39
2022-11-06T21:59:31.094Z,20.38
2022-11-06T22:01:59.707Z,20.38
2022-11-06T22:04:28.071Z,20.36
2022-11-06T22:06:56.377Z,20.35
2022-11-06T22:09:25.778Z,20.34
2022-11-06T22:11:54.467Z,20.31
2022-11-06T22:14:22.934Z,20.30
2022-11-06T22:16:51.411Z,20.31
2022-11-06T22:19:19.845Z,20.28
2022-11-06T22:21:48.190Z,20.27
2022-11-06T22:24:16.943Z,20.26
2022-11-06T22:26:45.427Z,20.24
2022-11-06T22:29:15.634Z,20.22
2022-11-06T22:31:44.240Z,20.22
2022-11-06T22:34:13.855Z,20.20
2022-11-06T22:36:43.025Z,20.20
2022-11-06T22:39:13.066Z,20.20
2022-11-06T22:41:41.990Z,20.19
2022-11-06T22:44:10.582Z,20.19
2022-11-06T22:46:39.033Z,20.21
2022-11-06T22:49:07.455Z,20.21
2022-11-06T22:51:36.484Z,20.21
2022-11-06T22:54:05.579Z,20.19
2022-11-06T22:56:34.692Z,20.19
2022-11-06T22:59:06.134Z,20.18
2022-11-06T23:01:41.208Z,20.17
2022-11-06T23:04:15.929Z,20.16
2022-11-06T23:06:45.963Z,20.17
2022-11-06T23:09:14.814Z,20.15
2022-11-06T23:11:45.544Z,20.15
2022-11-06T23:14:13.991Z,20.15
2022-11-06T23:17:05.118Z,20.14
2022-11-06T23:19:33.535Z,20.15
2022-11-06T23:22:20.120Z,20.14
2022-11-06T23:24:48.577Z,20.15
2022-11-06T23:27:17.077Z,20.17
2022-11-06T23:29:45.431Z,20.19
2022-11-06T23:32:14.010Z,20.20
2022-11-06T23:34:42.365Z,20.23
2022-11-06T23:37:10.727Z,20.25
2022-11-06T23:39:39.071Z,20.29
2022-11-06T23:42:07.403Z,20.30
2022-11-06T23:44:53.950Z,20.33
2022-11-06T23:47:22.301Z,20.37
2022-11-06T23:49:50.645Z,20.41
2022-11-06T23:52:19.262Z,20.44
2022-11-06T23:54:47.658Z,20.45
2022-11-06T23:57:16.486Z,20.46
2022-11-06T23:59:44.938Z,20.48
